GVAC

Details ICAO GVAC (SID)
Name Sal Amilcar Cabral Intl
Region Cape Verde
Timezone Atlantic/Cape_Verde (UTC-1.0)
Plans Departing 363
Arriving 386
Stats Elevation 184 ft / 56 m (AMSL)
Location 16.737600° -22.950000°
Runways 1
Magnetic Variation 9.123° W
Sunrise 2018-12-16 07:54:42 UTC / 2018-12-16 06:54:42 Local
Sunset 2018-12-16 19:02:45 UTC / 2018-12-16 18:02:45 Local
Advertisement - Login to hide

Runways

ID Width Length Bearing (true/mag) Surface Threshold Overrun Markings Lighting
01 148 ft / 45 m 9,852 ft / 3,003 m 359.64° / 8.76° ASPHALT 0 ft / 0 m 0 ft / 0 m APP CENTERLINE EDGE THRESHOLD MALSF
19 148 ft / 45 m 9,852 ft / 3,003 m 179.64° / 188.76° ASPHALT 0 ft / 0 m 0 ft / 0 m APP CENTERLINE EDGE THRESHOLD MALSF

Approach Navaids

Runway Type Ident Frequency Range Bearing (true/mag) Slope Elevation
01 GS SL 109.90 MHz 10 nm / 19 km 359.64° / 8.76° 3.00° 184 ft / 56 m (AMSL)
01 LOC-ILS SL 109.90 MHz 18 nm / 33 km 359.58° / 8.70° - 177 ft / 54 m (AMSL)

Map

Weather


0- 5 10 15 20 25 30 35+ Temperature / °C

Clouds and Precipitation
Forecast for 2018-12-16 12:00 UTC. Updated an hour ago

Ground ~20,000 ft ~40,000 ft Winds

METAR

GVAC 161000Z 06015KT 9999 FEW013 23/18 Q1021 NOSIG

TAF

TAF GVAC 160500Z 1606/1712 05015KT 9999 FEW014

Frequencies

Recorded 119.10 MHz Amilcar Cabral ATIS
Tower 119.75 MHz AmilCabral Tower
Approach 119.70 MHz Sal Approach
Warning: Do not use this data for real-world aviation or navigation. No guarantee of current accuracy is given.